sensor_id;sensor_type;location;lat;lon;timestamp;temperature;humidity
61255;DHT22;47128;47.530;8.584;2023-03-01T00:01:28;0.50;99.90
61255;DHT22;47128;47.530;8.584;2023-03-01T00:03:54;0.60;99.90
61255;DHT22;47128;47.530;8.584;2023-03-01T00:06:20;0.60;99.90
61255;DHT22;47128;47.530;8.584;2023-03-01T00:08:46;0.70;99.90
61255;DHT22;47128;47.530;8.584;2023-03-01T00:11:19;0.80;99.90
61255;DHT22;47128;47.530;8.584;2023-03-01T00:13:46;0.90;99.90
61255;DHT22;47128;47.530;8.584;2023-03-01T00:16:15;0.90;99.90
61255;DHT22;47128;47.530;8.584;2023-03-01T00:18:41;0.90;99.90
61255;DHT22;47128;47.530;8.584;2023-03-01T00:21:06;0.90;99.90
61255;DHT22;47128;47.530;8.584;2023-03-01T00:23:33;1.00;99.90
61255;DHT22;47128;47.530;8.584;2023-03-01T00:25:59;1.00;99.90
61255;DHT22;47128;47.530;8.584;2023-03-01T00:28:25;1.00;99.90
61255;DHT22;47128;47.530;8.584;2023-03-01T00:30:50;1.10;99.90
61255;DHT22;47128;47.530;8.584;2023-03-01T00:33:16;1.10;99.90
61255;DHT22;47128;47.530;8.584;2023-03-01T00:35:42;1.10;99.80
61255;DHT22;47128;47.530;8.584;2023-03-01T00:38:08;1.20;99.60
61255;DHT22;47128;47.530;8.584;2023-03-01T00:40:34;1.20;99.40
61255;DHT22;47128;47.530;8.584;2023-03-01T00:43:00;1.20;99.60
61255;DHT22;47128;47.530;8.584;2023-03-01T00:45:25;1.20;99.60
61255;DHT22;47128;47.530;8.584;2023-03-01T00:47:51;1.20;99.70
61255;DHT22;47128;47.530;8.584;2023-03-01T00:50:17;1.20;99.20
61255;DHT22;47128;47.530;8.584;2023-03-01T00:52:42;1.30;99.20
61255;DHT22;47128;47.530;8.584;2023-03-01T00:55:08;1.30;99.10
61255;DHT22;47128;47.530;8.584;2023-03-01T00:57:34;1.30;99.00
61255;DHT22;47128;47.530;8.584;2023-03-01T00:59:59;1.30;98.90
61255;DHT22;47128;47.530;8.584;2023-03-01T01:02:25;1.30;99.00
61255;DHT22;47128;47.530;8.584;2023-03-01T01:04:50;1.30;99.20
61255;DHT22;47128;47.530;8.584;2023-03-01T01:07:16;1.30;99.00
61255;DHT22;47128;47.530;8.584;2023-03-01T01:09:42;1.30;98.80
61255;DHT22;47128;47.530;8.584;2023-03-01T01:12:07;1.30;99.00
61255;DHT22;47128;47.530;8.584;2023-03-01T01:14:33;1.30;99.00
61255;DHT22;47128;47.530;8.584;2023-03-01T01:16:59;1.30;99.40
61255;DHT22;47128;47.530;8.584;2023-03-01T01:19:25;1.40;99.40
61255;DHT22;47128;47.530;8.584;2023-03-01T01:21:50;1.40;98.90
61255;DHT22;47128;47.530;8.584;2023-03-01T01:24:16;1.40;98.70
61255;DHT22;47128;47.530;8.584;2023-03-01T01:26:42;1.40;98.60
61255;DHT22;47128;47.530;8.584;2023-03-01T01:29:08;1.40;98.80
61255;DHT22;47128;47.530;8.584;2023-03-01T01:31:34;1.50;98.60
61255;DHT22;47128;47.530;8.584;2023-03-01T01:34:01;1.50;98.40
61255;DHT22;47128;47.530;8.584;2023-03-01T01:36:27;1.50;98.40
61255;DHT22;47128;47.530;8.584;2023-03-01T01:38:52;1.50;98.60
61255;DHT22;47128;47.530;8.584;2023-03-01T01:41:18;1.50;98.70
61255;DHT22;47128;47.530;8.584;2023-03-01T01:43:45;1.50;98.40
61255;DHT22;47128;47.530;8.584;2023-03-01T01:48:45;1.50;98.70
61255;DHT22;47128;47.530;8.584;2023-03-01T01:51:13;1.50;98.80
61255;DHT22;47128;47.530;8.584;2023-03-01T01:53:40;1.50;99.20
61255;DHT22;47128;47.530;8.584;2023-03-01T01:56:07;1.50;99.10
61255;DHT22;47128;47.530;8.584;2023-03-01T01:58:34;1.50;98.50
61255;DHT22;47128;47.530;8.584;2023-03-01T02:00:59;1.50;98.60
61255;DHT22;47128;47.530;8.584;2023-03-01T02:03:27;1.60;98.70
61255;DHT22;47128;47.530;8.584;2023-03-01T02:06:04;1.50;98.70
61255;DHT22;47128;47.530;8.584;2023-03-01T02:08:31;1.50;99.00
61255;DHT22;47128;47.530;8.584;2023-03-01T02:10:59;1.60;99.30
61255;DHT22;47128;47.530;8.584;2023-03-01T02:13:25;1.60;99.00
61255;DHT22;47128;47.530;8.584;2023-03-01T02:15:51;1.60;99.20
61255;DHT22;47128;47.530;8.584;2023-03-01T02:18:17;1.60;99.20
61255;DHT22;47128;47.530;8.584;2023-03-01T02:20:51;1.50;99.30
61255;DHT22;47128;47.530;8.584;2023-03-01T02:23:19;1.60;99.30
61255;DHT22;47128;47.530;8.584;2023-03-01T02:28:38;1.60;99.40
61255;DHT22;47128;47.530;8.584;2023-03-01T02:31:05;1.60;99.30
61255;DHT22;47128;47.530;8.584;2023-03-01T02:33:50;1.60;99.50
61255;DHT22;47128;47.530;8.584;2023-03-01T02:36:21;1.60;99.90
61255;DHT22;47128;47.530;8.584;2023-03-01T02:38:48;1.60;99.90
61255;DHT22;47128;47.530;8.584;2023-03-01T02:41:15;1.50;99.90
61255;DHT22;47128;47.530;8.584;2023-03-01T02:43:41;1.50;99.90
61255;DHT22;47128;47.530;8.584;2023-03-01T02:46:08;1.50;99.80
61255;DHT22;47128;47.530;8.584;2023-03-01T02:48:41;1.60;99.80
61255;DHT22;47128;47.530;8.584;2023-03-01T02:51:13;1.60;99.70
61255;DHT22;47128;47.530;8.584;2023-03-01T02:53:55;1.60;99.70
61255;DHT22;47128;47.530;8.584;2023-03-01T02:56:22;1.60;99.90
61255;DHT22;47128;47.530;8.584;2023-03-01T02:58:47;1.70;99.50
61255;DHT22;47128;47.530;8.584;2023-03-01T03:01:17;1.70;99.60
61255;DHT22;47128;47.530;8.584;2023-03-01T03:03:43;1.70;99.60
61255;DHT22;47128;47.530;8.584;2023-03-01T03:06:08;1.70;99.40
61255;DHT22;47128;47.530;8.584;2023-03-01T03:08:34;1.80;99.70
61255;DHT22;47128;47.530;8.584;2023-03-01T03:11:00;1.80;99.90
61255;DHT22;47128;47.530;8.584;2023-03-01T03:13:25;1.80;99.90
61255;DHT22;47128;47.530;8.584;2023-03-01T03:15:54;1.80;99.90
61255;DHT22;47128;47.530;8.584;2023-03-01T03:18:20;1.70;99.90
61255;DHT22;47128;47.530;8.584;2023-03-01T03:20:46;1.70;99.90
61255;DHT22;47128;47.530;8.584;2023-03-01T03:23:12;1.70;99.90
61255;DHT22;47128;47.530;8.584;2023-03-01T03:25:38;1.70;99.90
61255;DHT22;47128;47.530;8.584;2023-03-01T03:28:04;1.70;99.90
61255;DHT22;47128;47.530;8.584;2023-03-01T03:30:35;1.70;99.90
61255;DHT22;47128;47.530;8.584;2023-03-01T03:33:02;1.70;99.90
61255;DHT22;47128;47.530;8.584;2023-03-01T03:35:28;1.70;99.90
61255;DHT22;47128;47.530;8.584;2023-03-01T03:37:58;1.70;99.90
61255;DHT22;47128;47.530;8.584;2023-03-01T03:40:27;1.70;99.90
61255;DHT22;47128;47.530;8.584;2023-03-01T03:42:53;1.70;99.90
61255;DHT22;47128;47.530;8.584;2023-03-01T03:45:19;1.70;99.90
61255;DHT22;47128;47.530;8.584;2023-03-01T03:47:44;1.70;99.90
61255;DHT22;47128;47.530;8.584;2023-03-01T03:50:11;1.70;99.90
61255;DHT22;47128;47.530;8.584;2023-03-01T03:52:37;1.70;99.90
61255;DHT22;47128;47.530;8.584;2023-03-01T03:55:02;1.70;99.90
61255;DHT22;47128;47.530;8.584;2023-03-01T03:57:28;1.70;99.90
61255;DHT22;47128;47.530;8.584;2023-03-01T03:59:53;1.70;99.90
61255;DHT22;47128;47.530;8.584;2023-03-01T04:02:19;1.70;99.90
61255;DHT22;47128;47.530;8.584;2023-03-01T04:04:47;1.80;99.90
61255;DHT22;47128;47.530;8.584;2023-03-01T04:07:20;1.70;99.90
61255;DHT22;47128;47.530;8.584;2023-03-01T04:09:45;1.80;99.90
61255;DHT22;47128;47.530;8.584;2023-03-01T04:12:11;1.80;99.90
61255;DHT22;47128;47.530;8.584;2023-03-01T04:14:36;1.80;99.90
61255;DHT22;47128;47.530;8.584;2023-03-01T04:17:02;1.80;99.90
61255;DHT22;47128;47.530;8.584;2023-03-01T04:19:33;1.80;99.90
61255;DHT22;47128;47.530;8.584;2023-03-01T04:22:02;1.80;99.90
61255;DHT22;47128;47.530;8.584;2023-03-01T04:24:33;1.90;99.80
61255;DHT22;47128;47.530;8.584;2023-03-01T04:26:58;1.90;99.90
61255;DHT22;47128;47.530;8.584;2023-03-01T04:29:24;2.00;99.90
61255;DHT22;47128;47.530;8.584;2023-03-01T04:31:49;1.90;99.70
61255;DHT22;47128;47.530;8.584;2023-03-01T04:34:15;1.90;99.60
61255;DHT22;47128;47.530;8.584;2023-03-01T04:36:41;1.90;99.50
61255;DHT22;47128;47.530;8.584;2023-03-01T04:39:06;1.90;99.50
61255;DHT22;47128;47.530;8.584;2023-03-01T04:41:37;1.90;99.90
61255;DHT22;47128;47.530;8.584;2023-03-01T04:44:08;1.90;99.90
61255;DHT22;47128;47.530;8.584;2023-03-01T04:46:34;1.90;99.90
61255;DHT22;47128;47.530;8.584;2023-03-01T04:49:00;1.90;99.90
61255;DHT22;47128;47.530;8.584;2023-03-01T04:51:25;1.90;99.90
61255;DHT22;47128;47.530;8.584;2023-03-01T04:53:51;1.90;99.90
61255;DHT22;47128;47.530;8.584;2023-03-01T04:56:17;2.00;99.90
61255;DHT22;47128;47.530;8.584;2023-03-01T04:58:45;1.90;99.90
61255;DHT22;47128;47.530;8.584;2023-03-01T05:01:12;1.90;99.90
61255;DHT22;47128;47.530;8.584;2023-03-01T05:03:41;1.90;99.90
61255;DHT22;47128;47.530;8.584;2023-03-01T05:06:07;1.90;99.90
61255;DHT22;47128;47.530;8.584;2023-03-01T05:08:33;1.90;99.90
61255;DHT22;47128;47.530;8.584;2023-03-01T05:10:59;1.90;99.90
61255;DHT22;47128;47.530;8.584;2023-03-01T05:13:25;2.00;99.70
61255;DHT22;47128;47.530;8.584;2023-03-01T05:15:54;2.00;99.70
61255;DHT22;47128;47.530;8.584;2023-03-01T05:18:19;2.00;99.90
61255;DHT22;47128;47.530;8.584;2023-03-01T05:20:45;1.90;99.90
61255;DHT22;47128;47.530;8.584;2023-03-01T05:23:11;1.90;99.90
61255;DHT22;47128;47.530;8.584;2023-03-01T05:25:37;1.90;99.90
61255;DHT22;47128;47.530;8.584;2023-03-01T05:37:14;2.00;99.90
61255;DHT22;47128;47.530;8.584;2023-03-01T05:39:40;2.00;99.90
61255;DHT22;47128;47.530;8.584;2023-03-01T05:42:09;2.00;99.90
61255;DHT22;47128;47.530;8.584;2023-03-01T05:44:35;2.00;99.90
61255;DHT22;47128;47.530;8.584;2023-03-01T05:47:01;2.10;99.90
61255;DHT22;47128;47.530;8.584;2023-03-01T05:49:27;2.10;99.90
61255;DHT22;47128;47.530;8.584;2023-03-01T05:51:53;2.00;99.90
61255;DHT22;47128;47.530;8.584;2023-03-01T05:54:19;2.10;99.90
61255;DHT22;47128;47.530;8.584;2023-03-01T05:56:45;2.00;99.90
61255;DHT22;47128;47.530;8.584;2023-03-01T05:59:10;2.00;99.90
61255;DHT22;47128;47.530;8.584;2023-03-01T06:01:36;2.00;99.90
61255;DHT22;47128;47.530;8.584;2023-03-01T06:04:02;2.00;99.90
61255;DHT22;47128;47.530;8.584;2023-03-01T06:06:28;2.10;99.90
61255;DHT22;47128;47.530;8.584;2023-03-01T06:08:53;2.10;99.90
61255;DHT22;47128;47.530;8.584;2023-03-01T06:11:19;2.10;99.90
61255;DHT22;47128;47.530;8.584;2023-03-01T06:13:45;2.10;99.80
61255;DHT22;47128;47.530;8.584;2023-03-01T06:16:11;2.10;99.90
61255;DHT22;47128;47.530;8.584;2023-03-01T06:18:37;2.10;99.90
61255;DHT22;47128;47.530;8.584;2023-03-01T06:21:03;2.10;99.90
61255;DHT22;47128;47.530;8.584;2023-03-01T06:23:28;2.10;99.70
61255;DHT22;47128;47.530;8.584;2023-03-01T06:25:54;2.10;99.90
61255;DHT22;47128;47.530;8.584;2023-03-01T06:28:20;2.10;99.60
61255;DHT22;47128;47.530;8.584;2023-03-01T06:30:46;2.10;99.70
61255;DHT22;47128;47.530;8.584;2023-03-01T06:36:15;2.10;99.90
61255;DHT22;47128;47.530;8.584;2023-03-01T06:39:00;2.10;99.90
61255;DHT22;47128;47.530;8.584;2023-03-01T06:41:25;2.10;99.90
61255;DHT22;47128;47.530;8.584;2023-03-01T06:44:00;2.10;99.90
61255;DHT22;47128;47.530;8.584;2023-03-01T06:46:45;2.10;99.90
61255;DHT22;47128;47.530;8.584;2023-03-01T06:49:12;2.10;99.90
61255;DHT22;47128;47.530;8.584;2023-03-01T06:51:38;2.10;99.90
61255;DHT22;47128;47.530;8.584;2023-03-01T06:54:04;2.10;99.90
61255;DHT22;47128;47.530;8.584;2023-03-01T06:56:30;2.10;99.90
61255;DHT22;47128;47.530;8.584;2023-03-01T06:58:56;2.10;99.90
61255;DHT22;47128;47.530;8.584;2023-03-01T07:01:22;2.10;99.90
61255;DHT22;47128;47.530;8.584;2023-03-01T07:03:48;2.10;99.90
61255;DHT22;47128;47.530;8.584;2023-03-01T07:06:14;2.10;99.90
61255;DHT22;47128;47.530;8.584;2023-03-01T07:08:40;2.10;99.90
61255;DHT22;47128;47.530;8.584;2023-03-01T07:11:06;2.10;99.90
61255;DHT22;47128;47.530;8.584;2023-03-01T07:13:31;2.20;99.90
61255;DHT22;47128;47.530;8.584;2023-03-01T07:15:57;2.20;99.90
61255;DHT22;47128;47.530;8.584;2023-03-01T07:18:23;2.20;99.90
61255;DHT22;47128;47.530;8.584;2023-03-01T07:21:04;2.10;99.90
61255;DHT22;47128;47.530;8.584;2023-03-01T07:23:29;2.20;99.90
61255;DHT22;47128;47.530;8.584;2023-03-01T07:25:55;2.20;99.90
61255;DHT22;47128;47.530;8.584;2023-03-01T07:28:24;2.20;99.90
61255;DHT22;47128;47.530;8.584;2023-03-01T07:33:47;2.20;99.90
61255;DHT22;47128;47.530;8.584;2023-03-01T07:36:13;2.30;99.90
61255;DHT22;47128;47.530;8.584;2023-03-01T07:38:39;2.30;99.90
61255;DHT22;47128;47.530;8.584;2023-03-01T07:41:05;2.30;99.90
61255;DHT22;47128;47.530;8.584;2023-03-01T07:43:31;2.30;99.90
61255;DHT22;47128;47.530;8.584;2023-03-01T07:46:03;2.30;99.90
61255;DHT22;47128;47.530;8.584;2023-03-01T07:48:29;2.30;99.90
61255;DHT22;47128;47.530;8.584;2023-03-01T07:50:57;2.30;99.90
61255;DHT22;47128;47.530;8.584;2023-03-01T07:53:23;2.30;99.90
61255;DHT22;47128;47.530;8.584;2023-03-01T07:55:49;2.30;99.90
61255;DHT22;47128;47.530;8.584;2023-03-01T07:58:15;2.30;99.80
61255;DHT22;47128;47.530;8.584;2023-03-01T08:00:41;2.30;99.70
61255;DHT22;47128;47.530;8.584;2023-03-01T08:03:07;2.30;99.90
61255;DHT22;47128;47.530;8.584;2023-03-01T08:05:32;2.30;99.70
61255;DHT22;47128;47.530;8.584;2023-03-01T08:07:58;2.30;99.80
61255;DHT22;47128;47.530;8.584;2023-03-01T08:16:30;2.30;99.80
61255;DHT22;47128;47.530;8.584;2023-03-01T08:18:57;2.30;99.80
61255;DHT22;47128;47.530;8.584;2023-03-01T08:21:28;2.30;99.90
61255;DHT22;47128;47.530;8.584;2023-03-01T08:23:54;2.30;99.90
61255;DHT22;47128;47.530;8.584;2023-03-01T08:26:20;2.40;99.90
61255;DHT22;47128;47.530;8.584;2023-03-01T08:28:47;2.40;99.90
61255;DHT22;47128;47.530;8.584;2023-03-01T08:34:17;2.40;99.90
61255;DHT22;47128;47.530;8.584;2023-03-01T08:43:01;2.50;99.40
61255;DHT22;47128;47.530;8.584;2023-03-01T08:45:27;2.60;99.40
61255;DHT22;47128;47.530;8.584;2023-03-01T08:47:52;2.60;99.60
61255;DHT22;47128;47.530;8.584;2023-03-01T08:50:19;2.60;99.60
61255;DHT22;47128;47.530;8.584;2023-03-01T08:52:44;2.60;99.40
61255;DHT22;47128;47.530;8.584;2023-03-01T08:55:11;2.50;99.50
61255;DHT22;47128;47.530;8.584;2023-03-01T08:57:36;2.50;99.40
61255;DHT22;47128;47.530;8.584;2023-03-01T09:00:18;2.50;99.20
61255;DHT22;47128;47.530;8.584;2023-03-01T09:05:49;2.50;99.60
61255;DHT22;47128;47.530;8.584;2023-03-01T09:11:19;2.50;99.70
61255;DHT22;47128;47.530;8.584;2023-03-01T09:13:48;2.60;99.50
61255;DHT22;47128;47.530;8.584;2023-03-01T09:16:17;2.60;99.70
61255;DHT22;47128;47.530;8.584;2023-03-01T09:18:44;2.60;99.60
61255;DHT22;47128;47.530;8.584;2023-03-01T09:21:12;2.60;99.50
61255;DHT22;47128;47.530;8.584;2023-03-01T09:23:42;2.60;99.20
61255;DHT22;47128;47.530;8.584;2023-03-01T09:26:17;2.60;99.30
61255;DHT22;47128;47.530;8.584;2023-03-01T09:28:45;2.70;99.00
61255;DHT22;47128;47.530;8.584;2023-03-01T09:37:17;2.70;99.00
61255;DHT22;47128;47.530;8.584;2023-03-01T09:39:42;2.70;98.90
61255;DHT22;47128;47.530;8.584;2023-03-01T09:42:11;2.70;99.00
61255;DHT22;47128;47.530;8.584;2023-03-01T09:47:58;2.70;99.20
61255;DHT22;47128;47.530;8.584;2023-03-01T09:50:26;2.80;98.70
61255;DHT22;47128;47.530;8.584;2023-03-01T09:53:15;2.70;98.90
61255;DHT22;47128;47.530;8.584;2023-03-01T09:55:42;2.60;98.80
61255;DHT22;47128;47.530;8.584;2023-03-01T10:00:51;2.70;99.30
61255;DHT22;47128;47.530;8.584;2023-03-01T10:11:52;2.80;99.00
61255;DHT22;47128;47.530;8.584;2023-03-01T10:14:36;2.90;98.80
61255;DHT22;47128;47.530;8.584;2023-03-01T10:23:07;3.00;98.40
61255;DHT22;47128;47.530;8.584;2023-03-01T10:31:03;3.00;98.10
61255;DHT22;47128;47.530;8.584;2023-03-01T10:33:31;3.00;98.00
61255;DHT22;47128;47.530;8.584;2023-03-01T10:35:57;3.00;98.00
61255;DHT22;47128;47.530;8.584;2023-03-01T10:38:24;3.00;98.10
61255;DHT22;47128;47.530;8.584;2023-03-01T10:53:04;3.10;97.80
61255;DHT22;47128;47.530;8.584;2023-03-01T10:58:21;3.10;98.30
61255;DHT22;47128;47.530;8.584;2023-03-01T11:07:08;3.00;97.90
61255;DHT22;47128;47.530;8.584;2023-03-01T11:09:35;3.00;98.10
61255;DHT22;47128;47.530;8.584;2023-03-01T11:12:04;2.90;98.20
61255;DHT22;47128;47.530;8.584;2023-03-01T11:14:37;2.90;98.20
61255;DHT22;47128;47.530;8.584;2023-03-01T11:19:31;2.90;98.00
61255;DHT22;47128;47.530;8.584;2023-03-01T11:27:55;3.10;97.80
61255;DHT22;47128;47.530;8.584;2023-03-01T11:30:27;3.10;97.90
61255;DHT22;47128;47.530;8.584;2023-03-01T11:36:01;3.10;97.80
61255;DHT22;47128;47.530;8.584;2023-03-01T11:44:48;3.20;97.50
61255;DHT22;47128;47.530;8.584;2023-03-01T11:55:48;3.20;97.10
61255;DHT22;47128;47.530;8.584;2023-03-01T12:07:38;3.40;96.90
61255;DHT22;47128;47.530;8.584;2023-03-01T12:24:35;3.10;97.10
61255;DHT22;47128;47.530;8.584;2023-03-01T12:35:31;3.10;97.20
61255;DHT22;47128;47.530;8.584;2023-03-01T12:49:25;3.20;96.90
61255;DHT22;47128;47.530;8.584;2023-03-01T13:11:18;3.10;96.90
61255;DHT22;47128;47.530;8.584;2023-03-01T13:27:48;3.20;96.10
61255;DHT22;47128;47.530;8.584;2023-03-01T13:30:56;3.20;96.20
61255;DHT22;47128;47.530;8.584;2023-03-01T13:35:50;3.20;96.20
61255;DHT22;47128;47.530;8.584;2023-03-01T13:41:00;3.20;96.50
61255;DHT22;47128;47.530;8.584;2023-03-01T13:43:30;3.20;96.50
61255;DHT22;47128;47.530;8.584;2023-03-01T13:45:57;3.20;96.40
61255;DHT22;47128;47.530;8.584;2023-03-01T13:48:27;3.30;96.30
61255;DHT22;47128;47.530;8.584;2023-03-01T13:50:57;3.20;96.10
61255;DHT22;47128;47.530;8.584;2023-03-01T13:53:24;3.20;96.20
61255;DHT22;47128;47.530;8.584;2023-03-01T13:55:52;3.30;96.20
61255;DHT22;47128;47.530;8.584;2023-03-01T14:01:33;3.30;96.10
61255;DHT22;47128;47.530;8.584;2023-03-01T14:03:59;3.30;96.10
61255;DHT22;47128;47.530;8.584;2023-03-01T14:06:27;3.30;95.90
61255;DHT22;47128;47.530;8.584;2023-03-01T14:09:02;3.30;95.70
61255;DHT22;47128;47.530;8.584;2023-03-01T14:11:38;3.30;95.90
61255;DHT22;47128;47.530;8.584;2023-03-01T14:20:02;3.20;96.20
61255;DHT22;47128;47.530;8.584;2023-03-01T14:22:32;3.20;95.90
61255;DHT22;47128;47.530;8.584;2023-03-01T14:28:19;3.20;96.00
61255;DHT22;47128;47.530;8.584;2023-03-01T14:34:00;3.10;95.90
61255;DHT22;47128;47.530;8.584;2023-03-01T14:36:28;3.10;96.10
61255;DHT22;47128;47.530;8.584;2023-03-01T14:38:54;3.10;96.20
61255;DHT22;47128;47.530;8.584;2023-03-01T14:41:22;3.10;96.00
61255;DHT22;47128;47.530;8.584;2023-03-01T14:43:58;3.10;96.10
61255;DHT22;47128;47.530;8.584;2023-03-01T14:52:18;3.10;95.80
61255;DHT22;47128;47.530;8.584;2023-03-01T15:00:53;3.10;96.10
61255;DHT22;47128;47.530;8.584;2023-03-01T15:36:51;3.30;95.60
61255;DHT22;47128;47.530;8.584;2023-03-01T15:42:12;3.30;95.80
61255;DHT22;47128;47.530;8.584;2023-03-01T15:44:39;3.30;95.80
61255;DHT22;47128;47.530;8.584;2023-03-01T15:47:28;3.30;95.70
61255;DHT22;47128;47.530;8.584;2023-03-01T15:49:53;3.20;95.90
61255;DHT22;47128;47.530;8.584;2023-03-01T15:52:23;3.20;96.00
61255;DHT22;47128;47.530;8.584;2023-03-01T15:54:55;3.20;96.10
61255;DHT22;47128;47.530;8.584;2023-03-01T15:57:21;3.20;96.10
61255;DHT22;47128;47.530;8.584;2023-03-01T15:59:47;3.30;96.20
61255;DHT22;47128;47.530;8.584;2023-03-01T16:02:14;3.30;96.00
61255;DHT22;47128;47.530;8.584;2023-03-01T16:04:39;3.20;96.20
61255;DHT22;47128;47.530;8.584;2023-03-01T16:07:05;3.20;96.10
61255;DHT22;47128;47.530;8.584;2023-03-01T16:09:30;3.20;96.50
61255;DHT22;47128;47.530;8.584;2023-03-01T16:11:56;3.10;96.30
61255;DHT22;47128;47.530;8.584;2023-03-01T16:14:21;3.20;96.30
61255;DHT22;47128;47.530;8.584;2023-03-01T16:16:47;3.20;96.20
61255;DHT22;47128;47.530;8.584;2023-03-01T16:19:13;3.30;96.20
61255;DHT22;47128;47.530;8.584;2023-03-01T16:24:26;3.30;96.30
61255;DHT22;47128;47.530;8.584;2023-03-01T16:26:52;3.30;96.10
61255;DHT22;47128;47.530;8.584;2023-03-01T16:29:18;3.20;96.30
61255;DHT22;47128;47.530;8.584;2023-03-01T16:31:43;3.30;96.20
61255;DHT22;47128;47.530;8.584;2023-03-01T16:34:09;3.30;96.30
61255;DHT22;47128;47.530;8.584;2023-03-01T16:36:35;3.30;96.20
61255;DHT22;47128;47.530;8.584;2023-03-01T16:39:01;3.40;96.10
61255;DHT22;47128;47.530;8.584;2023-03-01T16:41:28;3.30;96.10
61255;DHT22;47128;47.530;8.584;2023-03-01T16:46:57;3.30;96.30
61255;DHT22;47128;47.530;8.584;2023-03-01T16:52:26;3.40;96.00
61255;DHT22;47128;47.530;8.584;2023-03-01T16:57:55;3.30;96.30
61255;DHT22;47128;47.530;8.584;2023-03-01T17:03:24;3.30;96.30
61255;DHT22;47128;47.530;8.584;2023-03-01T17:06:12;3.30;96.40
61255;DHT22;47128;47.530;8.584;2023-03-01T17:08:39;3.30;96.40
61255;DHT22;47128;47.530;8.584;2023-03-01T17:11:11;3.30;96.40
61255;DHT22;47128;47.530;8.584;2023-03-01T17:13:37;3.30;96.50
61255;DHT22;47128;47.530;8.584;2023-03-01T17:16:06;3.30;96.70
61255;DHT22;47128;47.530;8.584;2023-03-01T17:18:33;3.30;96.50
61255;DHT22;47128;47.530;8.584;2023-03-01T17:20:58;3.30;96.60
61255;DHT22;47128;47.530;8.584;2023-03-01T17:23:24;3.30;96.40
61255;DHT22;47128;47.530;8.584;2023-03-01T17:25:50;3.20;96.30
61255;DHT22;47128;47.530;8.584;2023-03-01T17:28:16;3.20;96.50
61255;DHT22;47128;47.530;8.584;2023-03-01T17:30:42;3.20;96.60
61255;DHT22;47128;47.530;8.584;2023-03-01T17:33:12;3.10;96.60
61255;DHT22;47128;47.530;8.584;2023-03-01T17:35:38;3.20;96.60
61255;DHT22;47128;47.530;8.584;2023-03-01T17:38:05;3.20;96.70
61255;DHT22;47128;47.530;8.584;2023-03-01T17:40:31;3.20;96.50
61255;DHT22;47128;47.530;8.584;2023-03-01T17:42:57;3.20;96.70
61255;DHT22;47128;47.530;8.584;2023-03-01T17:45:23;3.20;96.70
61255;DHT22;47128;47.530;8.584;2023-03-01T17:47:48;3.20;96.80
61255;DHT22;47128;47.530;8.584;2023-03-01T17:50:14;3.20;96.70
61255;DHT22;47128;47.530;8.584;2023-03-01T17:52:40;3.20;96.80
61255;DHT22;47128;47.530;8.584;2023-03-01T17:55:06;3.20;96.70
61255;DHT22;47128;47.530;8.584;2023-03-01T17:57:31;3.20;96.50
61255;DHT22;47128;47.530;8.584;2023-03-01T17:59:57;3.20;96.60
61255;DHT22;47128;47.530;8.584;2023-03-01T18:02:23;3.20;96.60
61255;DHT22;47128;47.530;8.584;2023-03-01T18:04:49;3.20;96.60
61255;DHT22;47128;47.530;8.584;2023-03-01T18:07:15;3.20;96.70
61255;DHT22;47128;47.530;8.584;2023-03-01T18:09:40;3.20;96.70
61255;DHT22;47128;47.530;8.584;2023-03-01T18:12:06;3.20;96.70
61255;DHT22;47128;47.530;8.584;2023-03-01T18:14:31;3.20;96.70
61255;DHT22;47128;47.530;8.584;2023-03-01T18:16:58;3.20;96.90
61255;DHT22;47128;47.530;8.584;2023-03-01T18:19:26;3.20;97.00
61255;DHT22;47128;47.530;8.584;2023-03-01T18:21:52;3.20;97.30
61255;DHT22;47128;47.530;8.584;2023-03-01T18:24:18;3.20;97.20
61255;DHT22;47128;47.530;8.584;2023-03-01T18:26:44;3.20;97.00
61255;DHT22;47128;47.530;8.584;2023-03-01T18:29:09;3.20;96.80
61255;DHT22;47128;47.530;8.584;2023-03-01T18:31:35;3.20;97.10
61255;DHT22;47128;47.530;8.584;2023-03-01T18:34:01;3.20;97.10
61255;DHT22;47128;47.530;8.584;2023-03-01T18:36:27;3.20;97.20
61255;DHT22;47128;47.530;8.584;2023-03-01T18:38:54;3.20;97.40
61255;DHT22;47128;47.530;8.584;2023-03-01T18:41:21;3.20;97.40
61255;DHT22;47128;47.530;8.584;2023-03-01T18:43:47;3.20;97.60
61255;DHT22;47128;47.530;8.584;2023-03-01T18:46:13;3.20;97.80
61255;DHT22;47128;47.530;8.584;2023-03-01T18:48:38;3.20;97.90
61255;DHT22;47128;47.530;8.584;2023-03-01T18:51:17;3.20;98.00
61255;DHT22;47128;47.530;8.584;2023-03-01T18:53:43;3.20;98.10
61255;DHT22;47128;47.530;8.584;2023-03-01T18:56:09;3.10;98.30
61255;DHT22;47128;47.530;8.584;2023-03-01T18:58:35;3.10;98.40
61255;DHT22;47128;47.530;8.584;2023-03-01T19:01:01;3.10;98.40
61255;DHT22;47128;47.530;8.584;2023-03-01T19:03:29;3.10;98.30
61255;DHT22;47128;47.530;8.584;2023-03-01T19:05:55;3.10;98.20
61255;DHT22;47128;47.530;8.584;2023-03-01T19:08:21;3.20;98.30
61255;DHT22;47128;47.530;8.584;2023-03-01T19:10:53;3.10;98.40
61255;DHT22;47128;47.530;8.584;2023-03-01T19:13:19;3.20;98.50
61255;DHT22;47128;47.530;8.584;2023-03-01T19:15:44;3.20;98.40
61255;DHT22;47128;47.530;8.584;2023-03-01T19:18:10;3.20;98.30
61255;DHT22;47128;47.530;8.584;2023-03-01T19:20:35;3.20;98.40
61255;DHT22;47128;47.530;8.584;2023-03-01T19:23:01;3.10;98.50
61255;DHT22;47128;47.530;8.584;2023-03-01T19:25:26;3.10;98.60
61255;DHT22;47128;47.530;8.584;2023-03-01T19:27:52;3.10;98.40
61255;DHT22;47128;47.530;8.584;2023-03-01T19:30:17;3.20;98.50
61255;DHT22;47128;47.530;8.584;2023-03-01T19:32:43;3.10;98.40
61255;DHT22;47128;47.530;8.584;2023-03-01T19:35:09;3.20;98.20
61255;DHT22;47128;47.530;8.584;2023-03-01T19:37:34;3.10;98.30
61255;DHT22;47128;47.530;8.584;2023-03-01T19:40:00;3.20;98.50
61255;DHT22;47128;47.530;8.584;2023-03-01T19:42:25;3.10;98.50
61255;DHT22;47128;47.530;8.584;2023-03-01T19:44:52;3.10;98.70
61255;DHT22;47128;47.530;8.584;2023-03-01T19:47:18;3.10;98.90
61255;DHT22;47128;47.530;8.584;2023-03-01T19:49:43;3.10;98.90
61255;DHT22;47128;47.530;8.584;2023-03-01T19:52:09;3.10;99.10
61255;DHT22;47128;47.530;8.584;2023-03-01T19:54:35;3.10;99.00
61255;DHT22;47128;47.530;8.584;2023-03-01T19:57:01;3.10;99.20
61255;DHT22;47128;47.530;8.584;2023-03-01T19:59:28;3.00;99.30
61255;DHT22;47128;47.530;8.584;2023-03-01T20:01:54;3.10;99.40
61255;DHT22;47128;47.530;8.584;2023-03-01T20:04:20;3.00;99.40
61255;DHT22;47128;47.530;8.584;2023-03-01T20:09:49;3.00;99.40
61255;DHT22;47128;47.530;8.584;2023-03-01T20:12:15;3.00;99.50
61255;DHT22;47128;47.530;8.584;2023-03-01T20:14:40;3.00;99.50
61255;DHT22;47128;47.530;8.584;2023-03-01T20:17:06;3.00;99.60
61255;DHT22;47128;47.530;8.584;2023-03-01T20:19:31;3.00;99.80
61255;DHT22;47128;47.530;8.584;2023-03-01T20:21:57;2.90;99.90
61255;DHT22;47128;47.530;8.584;2023-03-01T20:24:22;2.90;99.80
61255;DHT22;47128;47.530;8.584;2023-03-01T20:26:48;3.00;99.90
61255;DHT22;47128;47.530;8.584;2023-03-01T20:29:14;3.00;99.90
61255;DHT22;47128;47.530;8.584;2023-03-01T20:31:40;2.90;99.90